Time;durP1;ratioP1;P1;durP2;ratioP2;P2;SDS_P1;SDS_P2;PMS_P1;PMS_P2;Temp;Humidity;BMP_temperature;BMP_pressure;BME280_temperature;BME280_humidity;BME280_pressure;Samples;Min_cycle;Max_cycle;Signal;HPM_P1;HPM_P2
2023/07/23 00:00:23;;;;;;;4.72;2.88;;;;;;;;;;4999733;28;20061;-73
2023/07/23 00:02:48;;;;;;;4.68;3.00;;;;;;;;;;4999755;28;20053;-74
2023/07/23 00:05:14;;;;;;;5.03;3.05;;;;;;;;;;5006115;28;20065;-74
2023/07/23 00:07:39;;;;;;;4.80;3.25;;;;;;;;;;5000624;28;20574;-74
2023/07/23 00:10:05;;;;;;;5.10;3.20;;;;;;;;;;5004085;28;20573;-74
2023/07/23 00:12:31;;;;;;;4.25;3.10;;;;;;;;;;5000582;28;20096;-74
2023/07/23 00:14:56;;;;;;;5.78;3.10;;;;;;;;;;4999904;28;20053;-74
2023/07/23 00:17:22;;;;;;;5.07;3.10;;;;;;;;;;4998591;28;20140;-74
2023/07/23 00:19:48;;;;;;;3.60;2.70;;;;;;;;;;5005510;28;20438;-74
2023/07/23 00:22:13;;;;;;;4.15;2.80;;;;;;;;;;4999034;28;20054;-74
2023/07/23 00:24:38;;;;;;;4.40;2.65;;;;;;;;;;4999756;28;20054;-74
2023/07/23 00:27:04;;;;;;;4.90;3.25;;;;;;;;;;4998756;28;20081;-74
2023/07/23 00:29:30;;;;;;;3.17;2.53;;;;;;;;;;5001522;28;20128;-74
2023/07/23 00:31:55;;;;;;;4.82;3.00;;;;;;;;;;5000559;28;20057;-74
2023/07/23 00:34:21;;;;;;;3.78;2.70;;;;;;;;;;5002751;28;20053;-74
2023/07/23 00:36:47;;;;;;;3.90;3.00;;;;;;;;;;5003336;28;20414;-75
2023/07/23 00:39:12;;;;;;;4.35;3.00;;;;;;;;;;4985016;28;20038;-74
2023/07/23 00:41:38;;;;;;;5.47;3.08;;;;;;;;;;5003660;28;20061;-74
2023/07/23 00:44:03;;;;;;;5.90;2.85;;;;;;;;;;5002451;28;20057;-73
2023/07/23 00:46:29;;;;;;;4.63;3.15;;;;;;;;;;5001158;28;20073;-73
2023/07/23 00:48:54;;;;;;;4.90;2.88;;;;;;;;;;5009662;28;20456;-73
2023/07/23 00:51:20;;;;;;;5.32;3.28;;;;;;;;;;5008933;28;20060;-73
2023/07/23 00:53:47;;;;;;;5.53;2.90;;;;;;;;;;4989553;28;20088;-73
2023/07/23 00:56:13;;;;;;;3.47;2.70;;;;;;;;;;5001608;28;20064;-73
2023/07/23 00:58:39;;;;;;;4.07;3.03;;;;;;;;;;5007749;28;20049;-74
2023/07/23 01:01:04;;;;;;;4.32;3.20;;;;;;;;;;5001439;28;20056;-73
2023/07/23 01:03:30;;;;;;;5.88;3.35;;;;;;;;;;4998761;28;20042;-74
2023/07/23 01:06:01;;;;;;;8.10;3.35;;;;;;;;;;4999175;28;20141;-74
2023/07/23 01:08:27;;;;;;;4.70;3.03;;;;;;;;;;4999668;28;22092;-74
2023/07/23 01:10:53;;;;;;;4.10;3.20;;;;;;;;;;5005283;28;20054;-74
2023/07/23 01:13:20;;;;;;;5.13;3.67;;;;;;;;;;5004001;28;20422;-74
2023/07/23 01:15:46;;;;;;;5.68;3.03;;;;;;;;;;4998208;28;20046;-75
2023/07/23 01:18:12;;;;;;;3.47;3.10;;;;;;;;;;5009463;28;20064;-74
2023/07/23 01:20:38;;;;;;;4.03;3.17;;;;;;;;;;5007953;28;20042;-75
2023/07/23 01:23:03;;;;;;;3.60;2.83;;;;;;;;;;5007140;28;20042;-75
2023/07/23 01:25:29;;;;;;;6.07;3.38;;;;;;;;;;4990789;28;20499;-74
2023/07/23 01:27:54;;;;;;;4.65;3.15;;;;;;;;;;5001533;28;20053;-75
2023/07/23 01:30:19;;;;;;;4.18;2.90;;;;;;;;;;5011300;28;20056;-75
2023/07/23 01:32:47;;;;;;;7.65;3.40;;;;;;;;;;5004486;28;20045;-74
2023/07/23 01:35:15;;;;;;;4.47;3.30;;;;;;;;;;5012383;28;20045;-74
2023/07/23 01:37:47;;;;;;;5.45;3.55;;;;;;;;;;5010661;28;20042;-75
2023/07/23 01:40:13;;;;;;;5.15;3.28;;;;;;;;;;5005537;28;20041;-74
2023/07/23 01:42:39;;;;;;;4.05;3.25;;;;;;;;;;5011573;28;20052;-74
2023/07/23 01:45:05;;;;;;;6.60;2.97;;;;;;;;;;5009177;28;20045;-74
2023/07/23 01:47:30;;;;;;;4.95;3.42;;;;;;;;;;5009791;28;20123;-73
2023/07/23 01:49:56;;;;;;;3.45;2.78;;;;;;;;;;4999847;28;20136;-74
2023/07/23 01:52:21;;;;;;;3.15;2.78;;;;;;;;;;5001796;28;20052;-74
2023/07/23 01:54:47;;;;;;;3.97;3.28;;;;;;;;;;5002378;28;20049;-74
2023/07/23 01:57:13;;;;;;;3.28;2.63;;;;;;;;;;5002022;28;20046;-73
2023/07/23 01:59:38;;;;;;;5.28;3.08;;;;;;;;;;5001063;28;20038;-72
2023/07/23 02:02:06;;;;;;;4.82;3.08;;;;;;;;;;5002091;28;20499;-73
2023/07/23 02:04:32;;;;;;;3.65;2.67;;;;;;;;;;5003035;28;20097;-73
2023/07/23 02:06:57;;;;;;;5.47;2.58;;;;;;;;;;5002101;28;20700;-73
2023/07/23 02:09:23;;;;;;;3.63;2.85;;;;;;;;;;5001352;28;20049;-74
2023/07/23 02:11:48;;;;;;;3.55;2.72;;;;;;;;;;5002531;28;20046;-74
2023/07/23 02:14:13;;;;;;;4.53;2.60;;;;;;;;;;5001977;28;20065;-73
2023/07/23 02:16:39;;;;;;;4.57;2.70;;;;;;;;;;5001580;28;20050;-74
2023/07/23 02:19:04;;;;;;;4.22;3.10;;;;;;;;;;5003739;28;20088;-73
2023/07/23 02:21:30;;;;;;;3.38;2.58;;;;;;;;;;5002819;28;20049;-77
2023/07/23 02:23:56;;;;;;;4.28;3.00;;;;;;;;;;5006325;28;20061;-73
2023/07/23 02:26:21;;;;;;;3.42;2.85;;;;;;;;;;5005611;28;20068;-73
2023/07/23 02:28:47;;;;;;;6.72;3.30;;;;;;;;;;5010681;28;20533;-73
2023/07/23 02:31:12;;;;;;;6.40;3.20;;;;;;;;;;4993215;28;20046;-73
2023/07/23 02:33:38;;;;;;;4.55;3.13;;;;;;;;;;5003670;28;20038;-73
2023/07/23 02:36:03;;;;;;;5.05;2.63;;;;;;;;;;5002417;28;20058;-73
2023/07/23 02:38:29;;;;;;;3.90;2.90;;;;;;;;;;5003812;28;20049;-74
2023/07/23 02:40:55;;;;;;;4.40;3.03;;;;;;;;;;5001262;28;20041;-73
2023/07/23 02:43:21;;;;;;;3.53;2.85;;;;;;;;;;5008224;28;20100;-77
2023/07/23 02:45:46;;;;;;;4.43;3.20;;;;;;;;;;5013616;28;20619;-77
2023/07/23 02:48:12;;;;;;;3.50;3.05;;;;;;;;;;5013502;28;20049;-76
2023/07/23 02:50:40;;;;;;;4.20;3.10;;;;;;;;;;5016072;28;20069;-77
2023/07/23 02:53:06;;;;;;;3.10;2.67;;;;;;;;;;5015205;28;20038;-76
2023/07/23 02:55:32;;;;;;;4.15;2.92;;;;;;;;;;5014046;28;20053;-77
2023/07/23 02:58:00;;;;;;;6.53;2.90;;;;;;;;;;5009639;28;20160;-76
2023/07/23 03:00:28;;;;;;;3.72;3.00;;;;;;;;;;5015500;28;20049;-76
2023/07/23 03:02:54;;;;;;;4.38;3.20;;;;;;;;;;5020002;28;20046;-77
2023/07/23 03:05:20;;;;;;;3.63;2.70;;;;;;;;;;4998942;28;20108;-74
2023/07/23 03:07:46;;;;;;;7.88;3.03;;;;;;;;;;5009134;28;20049;-74
2023/07/23 03:10:12;;;;;;;4.03;3.03;;;;;;;;;;5009169;28;20484;-74
2023/07/23 03:12:37;;;;;;;3.13;2.83;;;;;;;;;;5013888;28;20121;-74
2023/07/23 03:15:04;;;;;;;4.53;3.03;;;;;;;;;;5022471;28;20042;-73
2023/07/23 03:17:30;;;;;;;6.70;3.60;;;;;;;;;;5001453;28;20057;-74
2023/07/23 03:19:55;;;;;;;4.93;3.13;;;;;;;;;;5000816;28;20045;-73
2023/07/23 03:22:21;;;;;;;5.10;3.15;;;;;;;;;;5008636;28;20403;-73
2023/07/23 03:24:47;;;;;;;3.80;2.85;;;;;;;;;;5001069;28;20400;-73
2023/07/23 03:27:13;;;;;;;6.43;3.00;;;;;;;;;;5010056;28;20045;-74
2023/07/23 03:29:38;;;;;;;4.10;2.90;;;;;;;;;;4999290;28;20125;-73
2023/07/23 03:32:05;;;;;;;7.53;3.15;;;;;;;;;;4999550;28;20122;-73
2023/07/23 03:34:30;;;;;;;6.85;3.50;;;;;;;;;;5008082;28;20049;-76
2023/07/23 03:36:56;;;;;;;3.83;2.95;;;;;;;;;;5011045;28;20058;-75
2023/07/23 03:39:21;;;;;;;4.82;2.78;;;;;;;;;;5008686;28;20041;-76
2023/07/23 03:41:47;;;;;;;5.90;3.30;;;;;;;;;;5009222;28;20050;-75
2023/07/23 03:44:13;;;;;;;3.28;2.67;;;;;;;;;;5011454;28;20046;-75
2023/07/23 03:47:01;;;;;;;6.03;2.97;;;;;;;;;;5012517;28;20057;-76
2023/07/23 03:49:27;;;;;;;5.78;3.33;;;;;;;;;;5023597;28;20180;-76
2023/07/23 03:51:52;;;;;;;4.75;3.50;;;;;;;;;;5001576;28;20055;-76
2023/07/23 03:54:17;;;;;;;4.13;3.42;;;;;;;;;;5003151;28;20558;-74
2023/07/23 03:56:43;;;;;;;3.60;3.25;;;;;;;;;;5021449;28;20049;-75
2023/07/23 03:59:09;;;;;;;6.13;3.65;;;;;;;;;;4999466;28;20045;-75
2023/07/23 04:01:35;;;;;;;6.78;3.72;;;;;;;;;;5003759;28;20442;-74
2023/07/23 04:04:00;;;;;;;6.63;4.20;;;;;;;;;;4999017;28;20049;-74
2023/07/23 04:06:26;;;;;;;4.05;3.45;;;;;;;;;;4999484;28;20790;-74
2023/07/23 04:08:52;;;;;;;8.20;3.80;;;;;;;;;;4999912;28;20045;-74
2023/07/23 04:11:17;;;;;;;5.38;3.00;;;;;;;;;;5001885;28;20046;-74
2023/07/23 04:13:48;;;;;;;4.25;2.97;;;;;;;;;;5003004;28;20050;-74
2023/07/23 04:16:14;;;;;;;4.13;3.28;;;;;;;;;;5004214;28;20045;-74
2023/07/23 04:18:50;;;;;;;6.65;3.47;;;;;;;;;;4999329;28;20061;-74
2023/07/23 04:21:18;;;;;;;6.53;3.78;;;;;;;;;;5005795;28;20898;-74
2023/07/23 04:23:48;;;;;;;5.70;3.53;;;;;;;;;;5004764;28;20060;-74
2023/07/23 04:26:17;;;;;;;6.10;3.85;;;;;;;;;;5019434;28;20140;-74
2023/07/23 04:28:43;;;;;;;5.68;3.42;;;;;;;;;;5007252;28;20041;-73
2023/07/23 04:31:09;;;;;;;3.88;3.15;;;;;;;;;;5007731;28;20056;-74
2023/07/23 04:33:35;;;;;;;6.85;3.65;;;;;;;;;;4990102;28;20042;-74
2023/07/23 04:36:02;;;;;;;5.88;3.35;;;;;;;;;;5010737;28;20127;-74
2023/07/23 04:38:28;;;;;;;6.72;3.70;;;;;;;;;;5005852;28;20499;-73
2023/07/23 04:40:53;;;;;;;4.82;3.67;;;;;;;;;;5002129;28;20047;-74
2023/07/23 04:43:19;;;;;;;3.92;3.35;;;;;;;;;;4998673;28;20715;-73
2023/07/23 04:45:44;;;;;;;6.53;3.42;;;;;;;;;;5005396;28;20041;-72
2023/07/23 04:48:12;;;;;;;4.65;3.63;;;;;;;;;;5003671;28;20061;-72
2023/07/23 04:50:37;;;;;;;6.50;3.60;;;;;;;;;;5009478;28;20045;-72
2023/07/23 04:53:03;;;;;;;5.50;3.83;;;;;;;;;;5000595;28;20057;-74
2023/07/23 04:55:28;;;;;;;5.63;3.78;;;;;;;;;;5005780;28;20142;-74
2023/07/23 04:57:54;;;;;;;6.53;3.17;;;;;;;;;;5004680;28;20049;-74
2023/07/23 05:00:19;;;;;;;4.63;3.60;;;;;;;;;;5008730;28;20095;-74
2023/07/23 05:02:45;;;;;;;4.28;3.40;;;;;;;;;;5007312;28;20088;-74
2023/07/23 05:05:10;;;;;;;5.10;3.60;;;;;;;;;;5009542;28;20084;-73
2023/07/23 05:07:36;;;;;;;5.07;3.40;;;;;;;;;;5007313;28;20045;-74
2023/07/23 05:10:01;;;;;;;3.78;3.13;;;;;;;;;;5004565;28;20046;-74
2023/07/23 05:12:28;;;;;;;3.42;3.13;;;;;;;;;;5004909;28;20494;-74
2023/07/23 05:15:09;;;;;;;6.72;2.80;;;;;;;;;;5004744;28;20041;-75
2023/07/23 05:17:34;;;;;;;4.60;2.97;;;;;;;;;;4999303;28;20053;-74
2023/07/23 05:20:00;;;;;;;3.13;2.58;;;;;;;;;;5008281;28;20046;-77
2023/07/23 05:22:25;;;;;;;3.00;2.47;;;;;;;;;;5018393;28;20088;-75
2023/07/23 05:24:51;;;;;;;4.65;2.92;;;;;;;;;;5016479;28;20058;-75
2023/07/23 05:27:16;;;;;;;3.35;2.20;;;;;;;;;;5016501;28;20053;-75
2023/07/23 05:29:41;;;;;;;2.90;2.20;;;;;;;;;;4999969;28;20220;-75
2023/07/23 05:32:07;;;;;;;6.65;2.67;;;;;;;;;;5006848;28;20495;-75
2023/07/23 05:34:33;;;;;;;4.22;2.60;;;;;;;;;;5006100;28;20095;-76
2023/07/23 05:36:58;;;;;;;2.53;2.25;;;;;;;;;;5017346;28;20123;-75
2023/07/23 05:39:23;;;;;;;4.15;2.42;;;;;;;;;;5002452;28;20069;-75
2023/07/23 05:41:49;;;;;;;3.72;3.33;;;;;;;;;;5003413;28;20489;-75
2023/07/23 05:44:14;;;;;;;2.80;2.38;;;;;;;;;;5003768;28;20048;-76
2023/07/23 05:46:40;;;;;;;5.55;2.55;;;;;;;;;;5003751;28;20056;-76
2023/07/23 05:49:05;;;;;;;3.78;2.30;;;;;;;;;;5007916;28;20060;-75
2023/07/23 05:51:30;;;;;;;5.60;2.50;;;;;;;;;;5008963;28;20053;-75
2023/07/23 05:53:56;;;;;;;3.63;2.17;;;;;;;;;;5004224;28;20099;-75
2023/07/23 05:56:21;;;;;;;3.92;2.40;;;;;;;;;;5007228;28;20041;-75
2023/07/23 05:58:47;;;;;;;5.60;2.13;;;;;;;;;;5003440;28;20546;-75
2023/07/23 06:01:12;;;;;;;3.33;2.58;;;;;;;;;;5002576;28;20045;-75
2023/07/23 06:03:38;;;;;;;3.20;2.50;;;;;;;;;;5009525;28;20050;-75
2023/07/23 06:06:03;;;;;;;2.65;2.20;;;;;;;;;;5005662;28;20042;-75
2023/07/23 06:08:28;;;;;;;2.83;2.35;;;;;;;;;;5008711;28;20037;-75
2023/07/23 06:10:54;;;;;;;4.20;2.53;;;;;;;;;;5002307;28;20529;-75
2023/07/23 06:13:19;;;;;;;2.80;2.28;;;;;;;;;;5007843;28;20049;-75
2023/07/23 06:15:45;;;;;;;2.55;2.20;;;;;;;;;;5001404;28;20073;-74
2023/07/23 06:18:10;;;;;;;2.83;2.05;;;;;;;;;;5002152;28;20487;-74
2023/07/23 06:20:35;;;;;;;3.35;2.20;;;;;;;;;;5004971;28;20940;-74
2023/07/23 06:23:01;;;;;;;2.97;1.90;;;;;;;;;;5012629;28;20080;-74
2023/07/23 06:25:26;;;;;;;2.10;1.90;;;;;;;;;;5012304;28;20037;-76
2023/07/23 06:27:52;;;;;;;2.47;1.65;;;;;;;;;;5008850;28;20050;-73
2023/07/23 06:30:17;;;;;;;4.72;2.10;;;;;;;;;;5002885;28;20144;-74
2023/07/23 06:32:43;;;;;;;2.70;2.20;;;;;;;;;;5002739;28;20109;-71
2023/07/23 06:35:10;;;;;;;2.38;2.10;;;;;;;;;;5004000;28;20041;-71
2023/07/23 06:37:37;;;;;;;4.72;1.98;;;;;;;;;;5000907;28;20050;-69
2023/07/23 06:40:03;;;;;;;2.08;1.88;;;;;;;;;;5001318;28;20050;-71
2023/07/23 06:42:29;;;;;;;2.38;1.80;;;;;;;;;;5002608;28;20208;-72
2023/07/23 06:44:54;;;;;;;2.13;1.85;;;;;;;;;;5003418;28;20050;-70
2023/07/23 06:47:20;;;;;;;5.38;1.90;;;;;;;;;;4999518;28;20074;-72
2023/07/23 06:49:45;;;;;;;2.58;1.90;;;;;;;;;;4995559;28;20086;-71
2023/07/23 06:52:11;;;;;;;2.90;2.08;;;;;;;;;;4998661;28;20081;-71
2023/07/23 06:54:40;;;;;;;2.33;2.00;;;;;;;;;;4998662;28;20049;-73
2023/07/23 06:57:06;;;;;;;5.13;1.58;;;;;;;;;;4997987;28;20045;-72
2023/07/23 06:59:32;;;;;;;3.05;2.17;;;;;;;;;;4999120;28;20092;-73
2023/07/23 07:01:57;;;;;;;1.75;1.65;;;;;;;;;;4998365;28;20053;-71
2023/07/23 07:04:23;;;;;;;2.50;1.92;;;;;;;;;;5003107;28;20123;-73
2023/07/23 07:06:48;;;;;;;2.17;1.98;;;;;;;;;;5000014;28;20045;-74
2023/07/23 07:09:14;;;;;;;3.45;1.88;;;;;;;;;;4998789;28;20064;-72
2023/07/23 07:11:39;;;;;;;3.28;2.05;;;;;;;;;;4996708;28;20056;-76
2023/07/23 07:14:05;;;;;;;3.15;2.22;;;;;;;;;;5002288;28;20496;-74
2023/07/23 07:16:30;;;;;;;2.20;2.00;;;;;;;;;;5013208;28;20061;-74
2023/07/23 07:18:56;;;;;;;2.42;2.10;;;;;;;;;;5010456;28;20110;-75
2023/07/23 07:21:21;;;;;;;2.10;1.90;;;;;;;;;;5006952;28;20144;-75
2023/07/23 07:23:46;;;;;;;3.00;1.90;;;;;;;;;;5006548;28;20042;-75
2023/07/23 07:26:12;;;;;;;3.78;1.90;;;;;;;;;;5004919;28;20045;-75
2023/07/23 07:28:37;;;;;;;2.80;2.20;;;;;;;;;;5002315;28;20521;-75
2023/07/23 07:31:03;;;;;;;2.97;1.95;;;;;;;;;;5003230;28;20196;-74
2023/07/23 07:33:29;;;;;;;2.22;1.85;;;;;;;;;;5000832;28;20042;-75
2023/07/23 07:35:56;;;;;;;3.08;2.08;;;;;;;;;;5007239;28;20077;-74
2023/07/23 07:38:23;;;;;;;1.88;1.70;;;;;;;;;;5001674;28;20045;-74
2023/07/23 07:40:51;;;;;;;2.70;2.08;;;;;;;;;;5000916;28;20048;-74
2023/07/23 07:43:18;;;;;;;1.88;1.63;;;;;;;;;;5014077;28;20100;-75
2023/07/23 07:45:47;;;;;;;2.72;1.60;;;;;;;;;;5007625;28;20558;-75
2023/07/23 07:48:13;;;;;;;1.80;1.70;;;;;;;;;;5010542;28;20064;-75
2023/07/23 07:50:38;;;;;;;2.10;1.90;;;;;;;;;;5003272;28;20073;-77
2023/07/23 07:53:03;;;;;;;4.38;1.70;;;;;;;;;;5001699;28;20042;-75
2023/07/23 07:55:29;;;;;;;3.35;2.15;;;;;;;;;;5009330;28;20903;-75
2023/07/23 07:57:55;;;;;;;2.35;2.05;;;;;;;;;;5000766;28;20112;-74
2023/07/23 08:00:20;;;;;;;2.33;1.55;;;;;;;;;;5003405;28;20050;-74
2023/07/23 08:02:47;;;;;;;2.33;1.63;;;;;;;;;;4998008;28;20523;-74
2023/07/23 08:05:13;;;;;;;2.30;1.92;;;;;;;;;;5002748;28;20490;-74
2023/07/23 08:07:40;;;;;;;1.70;1.50;;;;;;;;;;5007299;28;20054;-76
2023/07/23 08:10:07;;;;;;;3.20;2.05;;;;;;;;;;5003172;28;20049;-74
2023/07/23 08:12:33;;;;;;;2.20;1.80;;;;;;;;;;5001087;28;20256;-75
2023/07/23 08:14:59;;;;;;;2.50;1.80;;;;;;;;;;5004463;28;20064;-74
2023/07/23 08:17:25;;;;;;;3.08;2.00;;;;;;;;;;4998444;28;20048;-75
2023/07/23 08:19:51;;;;;;;3.88;1.73;;;;;;;;;;4999580;28;20045;-75
2023/07/23 08:22:17;;;;;;;2.22;1.67;;;;;;;;;;5005966;28;20041;-75
2023/07/23 08:24:42;;;;;;;3.40;1.67;;;;;;;;;;5000770;28;20925;-76
2023/07/23 08:27:11;;;;;;;2.35;1.90;;;;;;;;;;5002756;28;20107;-75
2023/07/23 08:29:39;;;;;;;2.63;1.90;;;;;;;;;;4999660;28;20124;-76
2023/07/23 08:32:07;;;;;;;2.83;2.17;;;;;;;;;;5000602;28;20037;-76
2023/07/23 08:34:33;;;;;;;2.65;2.03;;;;;;;;;;4982404;28;20046;-75
2023/07/23 08:36:59;;;;;;;1.88;1.73;;;;;;;;;;5007201;28;20388;-75
2023/07/23 08:39:24;;;;;;;1.70;1.60;;;;;;;;;;5002696;28;20395;-76
2023/07/23 08:42:21;;;;;;;4.55;1.90;;;;;;;;;;5006671;28;20045;-76
2023/07/23 08:45:22;;;;;;;2.00;1.80;;;;;;;;;;5004261;28;20046;-76
2023/07/23 08:47:48;;;;;;;1.92;1.73;;;;;;;;;;5014894;28;20045;-76
2023/07/23 08:50:14;;;;;;;3.47;2.00;;;;;;;;;;5010285;28;20060;-75
2023/07/23 08:52:41;;;;;;;2.00;1.90;;;;;;;;;;5006271;28;20053;-76
2023/07/23 08:55:08;;;;;;;2.40;1.92;;;;;;;;;;5004065;28;20042;-75
2023/07/23 08:57:33;;;;;;;2.38;1.85;;;;;;;;;;5001004;28;20055;-77
2023/07/23 09:00:00;;;;;;;1.80;1.70;;;;;;;;;;5008125;28;20049;-76
2023/07/23 09:02:28;;;;;;;3.08;1.73;;;;;;;;;;5002103;28;20103;-76
2023/07/23 09:04:53;;;;;;;2.10;1.90;;;;;;;;;;5005825;28;20399;-76
2023/07/23 09:07:19;;;;;;;1.98;1.65;;;;;;;;;;4998210;28;20609;-75
2023/07/23 09:09:48;;;;;;;5.15;1.60;;;;;;;;;;5001667;28;20047;-77
2023/07/23 09:12:15;;;;;;;4.00;1.90;;;;;;;;;;5012037;28;20065;-76
2023/07/23 09:14:42;;;;;;;1.52;1.42;;;;;;;;;;5002856;28;20761;-77
2023/07/23 09:17:23;;;;;;;2.05;1.75;;;;;;;;;;5006491;28;20050;-76
2023/07/23 09:19:53;;;;;;;1.90;1.60;;;;;;;;;;5002413;28;20049;-76
2023/07/23 09:22:19;;;;;;;2.13;1.67;;;;;;;;;;5005456;28;20041;-72
2023/07/23 09:24:44;;;;;;;3.13;1.90;;;;;;;;;;5004865;28;20099;-72
2023/07/23 09:27:12;;;;;;;2.85;1.98;;;;;;;;;;5006557;28;20494;-74
2023/07/23 09:29:41;;;;;;;1.88;1.67;;;;;;;;;;5000931;28;20042;-74
2023/07/23 09:32:23;;;;;;;1.95;1.75;;;;;;;;;;5000173;28;20054;-75
2023/07/23 09:34:49;;;;;;;3.92;2.03;;;;;;;;;;5003030;28;20049;-75
2023/07/23 09:37:17;;;;;;;2.22;1.58;;;;;;;;;;5002543;28;20065;-74
2023/07/23 09:39:43;;;;;;;2.20;1.67;;;;;;;;;;4998559;28;20046;-75
2023/07/23 09:42:10;;;;;;;1.90;1.70;;;;;;;;;;5008629;28;20064;-74
2023/07/23 09:44:39;;;;;;;2.05;1.80;;;;;;;;;;5009603;28;20053;-74
2023/07/23 09:47:05;;;;;;;1.58;1.48;;;;;;;;;;5007351;28;20050;-74
2023/07/23 09:49:31;;;;;;;2.33;1.80;;;;;;;;;;4997196;28;20439;-74
2023/07/23 09:51:57;;;;;;;1.80;1.70;;;;;;;;;;5001836;28;20064;-73
2023/07/23 09:54:25;;;;;;;3.03;1.52;;;;;;;;;;5008377;28;20050;-74
2023/07/23 09:56:51;;;;;;;1.60;1.50;;;;;;;;;;5005002;28;20060;-75
2023/07/23 09:59:17;;;;;;;1.90;1.77;;;;;;;;;;5005810;28;20049;-74
2023/07/23 10:01:42;;;;;;;2.17;1.70;;;;;;;;;;5002460;28;20471;-73
2023/07/23 10:04:10;;;;;;;2.60;1.67;;;;;;;;;;5002526;28;20053;-73
2023/07/23 10:06:36;;;;;;;3.03;2.08;;;;;;;;;;5006310;28;20037;-74
2023/07/23 10:09:02;;;;;;;3.55;1.90;;;;;;;;;;5010331;28;20850;-75
2023/07/23 10:11:28;;;;;;;2.10;1.80;;;;;;;;;;5006171;28;20037;-74
2023/07/23 10:13:53;;;;;;;1.98;1.65;;;;;;;;;;5008391;28;20187;-73
2023/07/23 10:16:31;;;;;;;2.65;2.00;;;;;;;;;;5008866;28;20060;-75
2023/07/23 10:19:04;;;;;;;3.67;1.90;;;;;;;;;;5007383;28;20080;-75
2023/07/23 10:21:32;;;;;;;2.00;1.83;;;;;;;;;;5008042;28;20950;-74
2023/07/23 10:23:58;;;;;;;2.35;2.10;;;;;;;;;;5012283;28;20045;-74
2023/07/23 10:26:29;;;;;;;2.45;2.20;;;;;;;;;;5010825;28;20120;-75
2023/07/23 10:29:14;;;;;;;4.13;2.40;;;;;;;;;;5015739;28;20046;-73
2023/07/23 10:31:42;;;;;;;3.08;2.30;;;;;;;;;;5001826;28;20049;-74
2023/07/23 10:34:23;;;;;;;2.60;1.90;;;;;;;;;;5003378;28;20049;-74
2023/07/23 10:37:14;;;;;;;3.22;2.55;;;;;;;;;;5010594;28;20041;-74
2023/07/23 10:39:42;;;;;;;3.17;2.40;;;;;;;;;;5006380;28;20176;-73
2023/07/23 10:42:07;;;;;;;2.65;2.20;;;;;;;;;;5004846;28;20053;-73
2023/07/23 10:44:33;;;;;;;3.78;2.17;;;;;;;;;;5007715;28;20045;-73
2023/07/23 10:47:02;;;;;;;3.85;2.38;;;;;;;;;;5006434;28;20041;-74
2023/07/23 10:49:30;;;;;;;3.88;2.25;;;;;;;;;;5004384;28;20983;-73
2023/07/23 10:52:16;;;;;;;2.90;2.50;;;;;;;;;;5009821;28;21080;-73
2023/07/23 10:54:42;;;;;;;5.13;2.50;;;;;;;;;;5008146;28;20061;-73
2023/07/23 10:57:07;;;;;;;4.63;2.45;;;;;;;;;;5010883;28;20049;-74
2023/07/23 10:59:38;;;;;;;5.35;2.95;;;;;;;;;;5011561;28;20042;-73
2023/07/23 11:02:05;;;;;;;4.38;2.47;;;;;;;;;;5010060;28;20054;-73
2023/07/23 11:04:36;;;;;;;2.53;2.33;;;;;;;;;;5012456;28;20045;-73
2023/07/23 11:07:06;;;;;;;3.33;2.80;;;;;;;;;;5007323;28;20104;-73
2023/07/23 11:09:37;;;;;;;4.30;3.00;;;;;;;;;;5020732;28;20160;-73
2023/07/23 11:12:06;;;;;;;7.75;3.13;;;;;;;;;;5008485;28;20646;-72
2023/07/23 11:14:34;;;;;;;2.90;2.40;;;;;;;;;;4995506;28;20042;-72
2023/07/23 11:17:02;;;;;;;4.25;2.70;;;;;;;;;;5007224;28;20037;-71
2023/07/23 11:19:28;;;;;;;4.82;2.53;;;;;;;;;;5008655;28;20049;-72
2023/07/23 11:22:02;;;;;;;3.72;2.65;;;;;;;;;;5011868;28;20056;-72
2023/07/23 11:24:29;;;;;;;2.92;2.50;;;;;;;;;;5007459;28;20041;-72
2023/07/23 11:26:59;;;;;;;7.18;2.78;;;;;;;;;;5008205;28;20052;-72
2023/07/23 11:29:25;;;;;;;3.67;2.95;;;;;;;;;;4998377;28;20053;-72
2023/07/23 11:31:52;;;;;;;3.92;2.80;;;;;;;;;;4998980;28;20050;-72
2023/07/23 11:34:17;;;;;;;4.07;3.05;;;;;;;;;;5001642;28;20049;-74
2023/07/23 11:36:43;;;;;;;7.07;2.97;;;;;;;;;;4999757;28;20049;-74
2023/07/23 11:39:09;;;;;;;5.28;3.50;;;;;;;;;;5003704;28;20104;-74
2023/07/23 11:41:41;;;;;;;5.35;2.78;;;;;;;;;;4995818;28;20046;-73
2023/07/23 11:44:07;;;;;;;5.53;3.08;;;;;;;;;;5004066;28;20426;-72
2023/07/23 11:46:37;;;;;;;5.05;2.88;;;;;;;;;;5001999;28;20080;-72
2023/07/23 11:49:03;;;;;;;7.05;3.47;;;;;;;;;;4999065;28;20075;-72
2023/07/23 11:51:31;;;;;;;6.18;3.63;;;;;;;;;;5000450;28;20108;-75
2023/07/23 11:54:07;;;;;;;5.53;3.05;;;;;;;;;;5000942;28;20084;-72
2023/07/23 11:56:41;;;;;;;4.25;2.80;;;;;;;;;;5009009;28;20038;-71
2023/07/23 11:59:08;;;;;;;5.80;3.65;;;;;;;;;;4996868;28;20041;-71
2023/07/23 12:01:36;;;;;;;6.95;3.60;;;;;;;;;;5001972;28;20511;-72
2023/07/23 12:04:03;;;;;;;5.85;3.20;;;;;;;;;;5003384;28;20053;-71
2023/07/23 12:06:31;;;;;;;4.40;3.20;;;;;;;;;;4997441;28;20038;-72
2023/07/23 12:08:57;;;;;;;4.13;3.15;;;;;;;;;;5000436;28;20638;-72
2023/07/23 12:11:23;;;;;;;4.93;3.40;;;;;;;;;;5006636;28;20067;-72
2023/07/23 12:13:54;;;;;;;4.95;3.35;;;;;;;;;;4998104;28;20038;-72
2023/07/23 12:16:31;;;;;;;5.07;3.75;;;;;;;;;;5004509;28;20045;-73
2023/07/23 12:19:22;;;;;;;6.53;3.20;;;;;;;;;;4993733;28;20343;-72
2023/07/23 12:21:51;;;;;;;4.57;3.23;;;;;;;;;;5005556;28;20930;-73
2023/07/23 12:24:17;;;;;;;4.60;3.13;;;;;;;;;;5004135;28;20144;-72
2023/07/23 12:26:47;;;;;;;4.78;3.30;;;;;;;;;;4983403;28;20562;-72
2023/07/23 12:29:13;;;;;;;7.38;3.30;;;;;;;;;;5004839;28;20768;-74
2023/07/23 12:31:43;;;;;;;4.07;3.00;;;;;;;;;;4998800;28;20065;-74
2023/07/23 12:34:12;;;;;;;4.00;3.10;;;;;;;;;;5002778;28;20057;-74
2023/07/23 12:36:38;;;;;;;3.75;3.40;;;;;;;;;;5006547;28;20077;-74
2023/07/23 12:39:05;;;;;;;3.55;3.00;;;;;;;;;;5001356;28;20049;-74
2023/07/23 12:41:31;;;;;;;4.88;3.50;;;;;;;;;;5002833;28;20033;-73
2023/07/23 12:43:56;;;;;;;7.90;3.83;;;;;;;;;;5001707;28;20059;-74
2023/07/23 12:46:22;;;;;;;7.13;3.90;;;;;;;;;;5005822;28;20045;-74
2023/07/23 12:48:49;;;;;;;4.93;3.85;;;;;;;;;;5005327;28;20056;-74
2023/07/23 12:51:14;;;;;;;5.25;4.28;;;;;;;;;;5002285;28;20045;-74
2023/07/23 12:53:40;;;;;;;5.38;3.90;;;;;;;;;;5001034;28;20442;-75
2023/07/23 12:56:05;;;;;;;4.78;3.50;;;;;;;;;;5001436;28;20054;-74
2023/07/23 12:58:31;;;;;;;6.43;3.72;;;;;;;;;;5008350;28;20060;-74
2023/07/23 13:00:56;;;;;;;4.50;3.63;;;;;;;;;;5006135;28;20569;-74
2023/07/23 13:03:21;;;;;;;5.10;3.28;;;;;;;;;;5005647;28;20571;-73
2023/07/23 13:05:47;;;;;;;4.30;3.67;;;;;;;;;;4997916;28;20054;-73
2023/07/23 13:08:12;;;;;;;4.78;3.55;;;;;;;;;;4998867;28;20046;-73
2023/07/23 13:10:42;;;;;;;5.70;4.00;;;;;;;;;;5002726;28;20049;-74
2023/07/23 13:13:07;;;;;;;5.95;3.92;;;;;;;;;;5004357;28;20490;-74
2023/07/23 13:15:33;;;;;;;5.03;3.67;;;;;;;;;;5000404;28;20073;-73
2023/07/23 13:17:59;;;;;;;4.95;3.42;;;;;;;;;;5006719;28;20046;-73
2023/07/23 13:20:24;;;;;;;8.50;3.95;;;;;;;;;;5001535;28;20064;-73
2023/07/23 13:22:50;;;;;;;6.10;3.78;;;;;;;;;;5001274;28;20038;-73
2023/07/23 13:25:15;;;;;;;4.70;3.53;;;;;;;;;;5007107;28;20041;-73
2023/07/23 13:27:41;;;;;;;6.45;3.88;;;;;;;;;;5003744;28;20042;-72
2023/07/23 13:30:07;;;;;;;6.47;3.83;;;;;;;;;;5005174;28;20054;-74
2023/07/23 13:32:33;;;;;;;6.07;4.15;;;;;;;;;;5004673;28;20046;-74
2023/07/23 13:34:59;;;;;;;5.57;3.88;;;;;;;;;;5008709;28;20037;-73
2023/07/23 13:37:24;;;;;;;6.45;3.90;;;;;;;;;;5003439;28;20046;-74
2023/07/23 13:39:50;;;;;;;5.60;4.07;;;;;;;;;;5008056;28;20562;-74
2023/07/23 13:42:20;;;;;;;5.20;4.28;;;;;;;;;;5003051;28;20044;-75
2023/07/23 13:44:45;;;;;;;6.33;3.80;;;;;;;;;;5004775;28;20152;-74
2023/07/23 13:47:11;;;;;;;6.30;3.92;;;;;;;;;;5009404;28;20532;-74
2023/07/23 13:49:37;;;;;;;5.30;3.90;;;;;;;;;;5004074;28;20132;-74
2023/07/23 13:52:03;;;;;;;5.30;3.90;;;;;;;;;;5004356;28;20499;-74
2023/07/23 13:54:28;;;;;;;4.72;3.65;;;;;;;;;;5006008;28;20069;-74
2023/07/23 13:56:54;;;;;;;6.53;4.13;;;;;;;;;;5003993;28;20527;-74
2023/07/23 13:59:19;;;;;;;5.30;3.85;;;;;;;;;;5011509;28;20073;-74
2023/07/23 14:01:45;;;;;;;5.60;3.60;;;;;;;;;;5004295;28;20073;-74
2023/07/23 14:04:10;;;;;;;6.70;4.40;;;;;;;;;;5002033;28;20299;-72
2023/07/23 14:06:36;;;;;;;7.00;4.10;;;;;;;;;;5000010;28;21309;-73
2023/07/23 14:09:02;;;;;;;6.05;3.70;;;;;;;;;;5006438;28;20687;-72
2023/07/23 14:11:27;;;;;;;5.80;3.90;;;;;;;;;;5008784;28;21217;-73
2023/07/23 14:13:53;;;;;;;5.00;3.72;;;;;;;;;;5008894;28;20061;-73
2023/07/23 14:16:20;;;;;;;5.70;4.00;;;;;;;;;;5004483;28;20058;-74
2023/07/23 14:18:46;;;;;;;7.13;3.90;;;;;;;;;;5009548;28;20132;-73
2023/07/23 14:21:12;;;;;;;5.32;3.78;;;;;;;;;;4999481;28;20049;-73
2023/07/23 14:23:38;;;;;;;4.93;3.88;;;;;;;;;;4999940;28;20061;-73
2023/07/23 14:26:03;;;;;;;5.05;4.03;;;;;;;;;;5010163;28;20052;-73
2023/07/23 14:28:29;;;;;;;6.30;3.88;;;;;;;;;;5008382;28;20046;-73
2023/07/23 14:30:54;;;;;;;5.80;4.13;;;;;;;;;;5008252;28;20037;-73
2023/07/23 14:33:20;;;;;;;6.90;3.95;;;;;;;;;;5012768;28;20542;-73
2023/07/23 14:35:46;;;;;;;5.43;3.83;;;;;;;;;;5007742;28;20064;-73
2023/07/23 14:38:11;;;;;;;5.35;3.92;;;;;;;;;;5009072;28;20053;-72
2023/07/23 14:40:37;;;;;;;6.18;4.22;;;;;;;;;;5004917;28;20060;-73